createdAt,value
2023-03-15T00:02:34.562Z,3.97
2023-03-15T00:07:31.411Z,4.22
2023-03-15T00:12:27.825Z,3.50
2023-03-15T00:17:24.242Z,4.30
2023-03-15T00:22:23.106Z,3.70
2023-03-15T00:27:19.606Z,4.32
2023-03-15T00:32:16.217Z,3.25
2023-03-15T00:37:12.750Z,3.78
2023-03-15T00:42:09.176Z,3.50
2023-03-15T00:47:05.639Z,3.30
2023-03-15T00:52:02.177Z,3.53
2023-03-15T00:57:03.162Z,3.30
2023-03-15T01:01:59.669Z,3.65
2023-03-15T01:06:56.136Z,3.88
2023-03-15T01:11:52.590Z,4.10
2023-03-15T01:16:50.070Z,3.38
2023-03-15T01:21:47.850Z,3.50
2023-03-15T01:26:44.233Z,4.40
2023-03-15T01:31:40.741Z,3.80
2023-03-15T01:36:37.185Z,4.22
2023-03-15T01:41:33.607Z,4.07
2023-03-15T01:46:34.441Z,3.95
2023-03-15T01:51:39.274Z,3.60
2023-03-15T01:56:39.838Z,4.15
2023-03-15T02:01:38.507Z,4.65
2023-03-15T02:06:35.548Z,5.60
2023-03-15T02:11:33.659Z,5.30
2023-03-15T02:16:31.182Z,5.20
2023-03-15T02:21:35.899Z,4.90
2023-03-15T02:26:42.351Z,4.78
2023-03-15T02:31:39.348Z,4.10
2023-03-15T02:36:36.884Z,4.18
2023-03-15T02:41:43.599Z,4.38
2023-03-15T02:46:41.205Z,4.25
2023-03-15T02:51:37.597Z,4.43
2023-03-15T02:56:34.180Z,4.35
2023-03-15T03:01:31.692Z,4.30
2023-03-15T03:06:28.173Z,4.10
2023-03-15T03:11:24.558Z,4.10
2023-03-15T03:16:23.088Z,4.72
2023-03-15T03:21:19.586Z,4.10
2023-03-15T03:26:18.940Z,3.97
2023-03-15T03:31:21.144Z,4.05
2023-03-15T03:36:18.609Z,4.20
2023-03-15T03:41:15.143Z,4.28
2023-03-15T03:46:11.646Z,4.75
2023-03-15T03:51:08.046Z,4.72
2023-03-15T03:56:08.265Z,5.40
2023-03-15T04:01:05.043Z,4.72
2023-03-15T04:06:01.864Z,5.18
2023-03-15T04:10:58.318Z,4.00
2023-03-15T04:15:57.512Z,4.20
2023-03-15T04:20:56.955Z,3.78
2023-03-15T04:25:55.221Z,4.32
2023-03-15T04:30:52.467Z,3.90
2023-03-15T04:35:48.935Z,3.88
2023-03-15T04:40:45.401Z,4.15
2023-03-15T04:45:41.818Z,4.22
2023-03-15T04:50:38.182Z,4.50
2023-03-15T04:55:34.603Z,5.00
2023-03-15T05:00:31.381Z,5.20
2023-03-15T05:05:29.536Z,6.28
2023-03-15T05:10:26.002Z,7.18
2023-03-15T05:15:22.599Z,8.32
2023-03-15T05:20:19.013Z,8.38
2023-03-15T05:25:15.513Z,10.25
2023-03-15T05:30:13.001Z,10.50
2023-03-15T05:35:09.864Z,10.18
2023-03-15T05:40:10.193Z,10.75
2023-03-15T05:45:07.537Z,11.05
2023-03-15T05:50:04.954Z,12.68
2023-03-15T05:55:01.350Z,10.90
2023-03-15T05:59:57.813Z,10.65
2023-03-15T06:04:54.383Z,8.88
2023-03-15T06:09:52.022Z,10.27
2023-03-15T06:14:48.434Z,11.10
2023-03-15T06:19:44.867Z,10.20
2023-03-15T06:24:41.405Z,8.85
2023-03-15T06:29:37.833Z,9.38
2023-03-15T06:34:34.207Z,9.60
2023-03-15T06:39:34.253Z,10.23
2023-03-15T06:44:30.701Z,10.15
2023-03-15T06:49:27.141Z,9.38
2023-03-15T06:54:23.826Z,9.10
2023-03-15T06:59:20.385Z,9.75
2023-03-15T07:04:16.822Z,9.82
2023-03-15T07:09:13.283Z,8.65
2023-03-15T07:14:09.771Z,9.38
2023-03-15T07:19:06.233Z,9.30
2023-03-15T07:24:02.795Z,9.15
2023-03-15T07:28:59.309Z,8.48
2023-03-15T07:33:55.738Z,7.70
2023-03-15T07:38:52.170Z,8.07
2023-03-15T07:43:48.600Z,7.20
2023-03-15T07:48:45.045Z,7.32
2023-03-15T07:53:41.446Z,5.30
2023-03-15T07:58:37.862Z,6.22
2023-03-15T08:03:34.261Z,6.05
2023-03-15T08:08:30.642Z,6.18
2023-03-15T08:13:27.033Z,6.20
2023-03-15T08:18:23.551Z,6.80
2023-03-15T08:23:20.104Z,6.60
2023-03-15T08:28:16.706Z,6.25
2023-03-15T08:33:13.086Z,6.55
2023-03-15T08:38:09.563Z,5.80
2023-03-15T08:43:06.017Z,5.10
2023-03-15T08:48:02.441Z,6.22
2023-03-15T08:52:58.922Z,5.50
2023-03-15T08:57:55.592Z,5.35
2023-03-15T09:02:52.233Z,5.03
2023-03-15T09:07:49.303Z,4.70
2023-03-15T09:12:48.398Z,4.80
2023-03-15T09:17:45.508Z,4.50
2023-03-15T09:22:50.693Z,4.45
2023-03-15T09:27:47.146Z,3.70
2023-03-15T09:32:44.503Z,4.20
2023-03-15T09:37:42.324Z,4.00
2023-03-15T09:42:53.198Z,4.20
2023-03-15T09:48:13.090Z,4.18
2023-03-15T09:53:18.786Z,4.60
2023-03-15T09:58:21.814Z,4.90
2023-03-15T10:03:47.935Z,7.82
2023-03-15T10:08:50.367Z,3.97
2023-03-15T10:14:08.693Z,4.55
2023-03-15T10:19:05.014Z,3.92
2023-03-15T10:24:05.560Z,4.63
2023-03-15T10:29:09.961Z,4.70
2023-03-15T10:34:06.463Z,4.78
2023-03-15T10:39:05.744Z,4.18
2023-03-15T10:44:05.569Z,5.38
2023-03-15T10:49:13.007Z,4.18
2023-03-15T10:54:16.490Z,4.57
2023-03-15T10:59:21.462Z,4.63
2023-03-15T11:04:27.301Z,3.55
2023-03-15T11:09:26.498Z,3.63
2023-03-15T11:14:23.487Z,4.57
2023-03-15T11:19:22.882Z,3.78
2023-03-15T11:24:24.330Z,3.70
2023-03-15T11:29:27.856Z,4.57
2023-03-15T11:34:38.332Z,3.42
2023-03-15T11:39:45.023Z,3.80
2023-03-15T11:44:46.893Z,5.82
2023-03-15T11:49:54.340Z,4.38
2023-03-15T11:54:54.406Z,4.20
2023-03-15T11:59:50.868Z,4.05
2023-03-15T12:04:49.127Z,4.20
2023-03-15T12:09:56.088Z,4.70
2023-03-15T12:15:11.390Z,4.32
2023-03-15T12:20:18.119Z,4.10
2023-03-15T12:25:19.434Z,3.92
2023-03-15T12:30:22.146Z,4.05
2023-03-15T12:35:22.189Z,4.05
2023-03-15T12:40:26.633Z,9.00
2023-03-15T12:45:37.594Z,4.60
2023-03-15T12:50:46.846Z,4.93
2023-03-15T12:55:43.745Z,5.55
2023-03-15T13:00:42.734Z,6.38
2023-03-15T13:06:03.830Z,4.53
2023-03-15T13:11:15.489Z,4.70
2023-03-15T13:16:44.457Z,4.82
2023-03-15T13:22:10.814Z,4.53
2023-03-15T13:27:23.120Z,4.40
2023-03-15T13:32:22.873Z,5.13
2023-03-15T13:37:29.045Z,5.35
2023-03-15T13:42:25.624Z,5.32
2023-03-15T13:47:22.036Z,5.70
2023-03-15T13:52:18.528Z,5.43
2023-03-15T13:57:19.659Z,4.85
2023-03-15T14:02:25.493Z,5.28
2023-03-15T14:07:38.528Z,5.13
2023-03-15T14:17:31.605Z,5.57
2023-03-15T14:22:28.382Z,5.45
2023-03-15T14:27:28.462Z,6.10
2023-03-15T14:32:33.708Z,6.65
2023-03-15T14:37:30.125Z,6.82
2023-03-15T14:42:26.544Z,6.30
2023-03-15T14:47:23.094Z,6.10
2023-03-15T14:52:19.757Z,6.35
2023-03-15T14:57:16.234Z,6.10
2023-03-15T15:02:17.788Z,6.03
2023-03-15T15:07:15.199Z,6.40
2023-03-15T15:12:11.924Z,5.97
2023-03-15T15:17:09.117Z,5.50
2023-03-15T15:22:05.551Z,5.30
2023-03-15T15:27:02.515Z,5.53
2023-03-15T15:31:59.032Z,5.63
2023-03-15T15:36:56.293Z,6.53
2023-03-15T15:41:53.380Z,6.22
2023-03-15T15:46:49.939Z,5.50
2023-03-15T15:51:51.878Z,5.75
2023-03-15T15:56:51.792Z,5.50
2023-03-15T16:02:00.782Z,6.13
2023-03-15T16:07:02.101Z,6.50
2023-03-15T16:11:58.916Z,5.63
2023-03-15T16:16:55.361Z,6.00
2023-03-15T16:21:54.445Z,5.93
2023-03-15T16:26:54.166Z,4.90
2023-03-15T16:31:51.021Z,6.68
2023-03-15T16:36:54.590Z,5.50
2023-03-15T16:41:52.581Z,6.93
2023-03-15T16:46:49.569Z,5.13
2023-03-15T16:51:51.160Z,5.72
2023-03-15T16:56:48.889Z,6.25
2023-03-15T17:01:46.041Z,5.28
2023-03-15T17:06:45.328Z,5.63
2023-03-15T17:11:45.149Z,6.07
2023-03-15T17:16:41.714Z,6.00
2023-03-15T17:21:38.773Z,5.93
2023-03-15T17:26:35.677Z,6.82
2023-03-15T17:31:34.093Z,7.50
2023-03-15T17:36:37.588Z,5.85
2023-03-15T17:41:37.121Z,6.28
2023-03-15T17:46:33.610Z,6.45
2023-03-15T17:51:32.877Z,7.25
2023-03-15T17:56:29.681Z,6.28
2023-03-15T18:01:27.849Z,6.75
2023-03-15T18:06:24.409Z,6.25
2023-03-15T18:11:32.525Z,7.95
2023-03-15T18:16:30.273Z,7.28
2023-03-15T18:21:27.621Z,6.55
2023-03-15T18:26:25.075Z,7.70
2023-03-15T18:31:24.360Z,6.20
2023-03-15T18:36:21.016Z,6.43
2023-03-15T18:41:20.706Z,6.10
2023-03-15T18:46:26.829Z,5.82
2023-03-15T18:51:25.667Z,5.70
2023-03-15T18:56:28.418Z,6.53
2023-03-15T19:01:24.951Z,6.47
2023-03-15T19:06:23.340Z,5.95
2023-03-15T19:11:20.830Z,6.45
2023-03-15T19:16:21.578Z,5.60
2023-03-15T19:21:20.201Z,6.35
2023-03-15T19:26:16.955Z,5.78
2023-03-15T19:31:13.566Z,5.20
2023-03-15T19:36:11.331Z,5.20
2023-03-15T19:41:11.374Z,7.18
2023-03-15T19:46:09.492Z,7.68
2023-03-15T19:51:06.169Z,6.22
2023-03-15T19:56:06.853Z,5.13
2023-03-15T20:01:03.410Z,5.47
2023-03-15T20:06:12.393Z,6.38
2023-03-15T20:11:10.277Z,5.45
2023-03-15T20:16:07.542Z,5.93
2023-03-15T20:21:04.668Z,6.80
2023-03-15T20:26:10.727Z,6.70
2023-03-15T20:31:13.876Z,6.07
2023-03-15T20:36:11.111Z,6.22
2023-03-15T20:41:07.692Z,6.72
2023-03-15T20:46:04.347Z,6.45
2023-03-15T20:51:04.486Z,6.93
2023-03-15T20:56:01.685Z,5.55
2023-03-15T21:01:24.506Z,6.03
2023-03-15T21:06:20.942Z,6.32
2023-03-15T21:11:17.689Z,5.70
2023-03-15T21:16:14.148Z,5.70
2023-03-15T21:21:11.378Z,6.50
2023-03-15T21:26:10.529Z,7.25
2023-03-15T21:31:07.406Z,6.50
2023-03-15T21:36:04.281Z,6.85
2023-03-15T21:41:01.249Z,5.70
2023-03-15T21:46:12.885Z,5.63
2023-03-15T21:51:10.007Z,7.00
2023-03-15T21:56:06.925Z,5.43
2023-03-15T22:01:06.188Z,7.15
2023-03-15T22:06:03.015Z,5.72
2023-03-15T22:10:59.620Z,5.38
2023-03-15T22:15:56.069Z,5.78
2023-03-15T22:20:52.738Z,5.78
2023-03-15T22:25:51.052Z,4.57
2023-03-15T22:30:48.930Z,6.05
2023-03-15T22:35:45.830Z,4.68
2023-03-15T22:40:42.864Z,5.47
2023-03-15T22:45:39.882Z,4.70
2023-03-15T22:50:36.326Z,5.55
2023-03-15T22:55:32.720Z,5.32
2023-03-15T23:00:30.133Z,5.15
2023-03-15T23:05:26.581Z,5.55
2023-03-15T23:10:23.064Z,5.70
2023-03-15T23:15:19.445Z,5.80
2023-03-15T23:20:17.947Z,5.78
2023-03-15T23:25:16.404Z,5.40
2023-03-15T23:30:13.843Z,5.65
2023-03-15T23:35:14.892Z,6.93
2023-03-15T23:40:13.697Z,5.07
2023-03-15T23:45:12.159Z,6.18
2023-03-15T23:50:10.265Z,6.05
2023-03-15T23:55:07.030Z,5.82
